Time;durP1;ratioP1;P1;durP2;ratioP2;P2;SDS_P1;SDS_P2;PMS_P1;PMS_P2;Temp;Humidity;BMP_temperature;BMP_pressure;BME280_temperature;BME280_humidity;BME280_pressure;Samples;Min_cycle;Max_cycle;Signal;HPM_P1;HPM_P2
2022/10/04 00:02:33;;;;;;;12.35;4.13;;;13.20;99.90;;;;;;5032214;28;20033;-55
2022/10/04 00:05:23;;;;;;;9.52;4.28;;;13.20;99.90;;;;;;5023444;28;20041;-53
2022/10/04 00:08:29;;;;;;;6.70;4.03;;;13.30;99.90;;;;;;5014791;28;20026;-54
2022/10/04 00:11:22;;;;;;;9.55;3.67;;;13.40;99.90;;;;;;5030345;28;20094;-49
2022/10/04 00:14:31;;;;;;;13.90;4.15;;;13.30;99.90;;;;;;5034083;28;20029;-51
2022/10/04 00:17:26;;;;;;;9.30;3.97;;;13.20;99.90;;;;;;5013644;28;20026;-53
2022/10/04 00:20:49;;;;;;;11.98;3.85;;;13.10;99.90;;;;;;5019751;28;20039;-50
2022/10/04 00:23:35;;;;;;;10.15;3.75;;;13.00;99.90;;;;;;5032996;28;20030;-54
2022/10/04 00:26:24;;;;;;;10.55;4.50;;;13.00;99.90;;;;;;5012336;28;20030;-55
2022/10/04 00:29:25;;;;;;;8.85;4.47;;;12.80;99.90;;;;;;5013583;28;20034;-55
2022/10/04 00:32:11;;;;;;;9.27;3.78;;;12.80;99.90;;;;;;5013181;28;20033;-54
2022/10/04 00:34:58;;;;;;;11.15;4.07;;;12.90;99.90;;;;;;5013385;28;20033;-56
2022/10/04 00:38:10;;;;;;;8.13;4.15;;;12.90;99.90;;;;;;4998354;28;20528;-51
2022/10/04 00:41:04;;;;;;;8.88;3.70;;;12.70;99.90;;;;;;5016551;28;20033;-53
2022/10/04 00:43:50;;;;;;;11.35;3.80;;;12.60;99.90;;;;;;5007922;28;20556;-54
2022/10/04 00:46:40;;;;;;;8.27;3.83;;;12.60;99.90;;;;;;5028250;28;20072;-51
2022/10/04 00:49:38;;;;;;;9.43;4.10;;;12.70;99.90;;;;;;5026089;28;20579;-54
2022/10/04 00:52:29;;;;;;;9.00;4.10;;;12.50;99.90;;;;;;5018365;28;20037;-54
2022/10/04 00:55:27;;;;;;;7.68;4.20;;;12.60;99.90;;;;;;4993154;28;20513;-55
2022/10/04 00:58:19;;;;;;;8.93;4.47;;;12.80;99.90;;;;;;5004012;28;20421;-53
2022/10/04 01:01:05;;;;;;;8.75;3.67;;;12.80;99.90;;;;;;5012490;28;20022;-54
2022/10/04 01:03:56;;;;;;;9.32;3.90;;;12.80;99.90;;;;;;5006475;28;20029;-54
2022/10/04 01:06:42;;;;;;;10.63;3.65;;;12.60;99.90;;;;;;5032955;28;20032;-54
2022/10/04 01:09:32;;;;;;;9.57;3.47;;;12.50;99.90;;;;;;5020124;28;20151;-57
2022/10/04 01:12:59;;;;;;;11.00;3.90;;;12.40;99.90;;;;;;5011885;28;20026;-56
2022/10/04 01:15:49;;;;;;;;;;;12.40;99.90;;;;;;4976568;28;20069;-55
2022/10/04 01:18:35;;;;;;;13.80;3.67;;;12.40;99.90;;;;;;5031170;28;19908;-56
2022/10/04 01:21:29;;;;;;;6.05;3.50;;;12.30;99.90;;;;;;5026669;28;20032;-57
2022/10/04 01:24:16;;;;;;;9.18;3.85;;;12.40;99.90;;;;;;4997150;28;20661;-56
2022/10/04 01:27:02;;;;;;;14.55;4.18;;;12.40;99.90;;;;;;5010165;28;20105;-54
2022/10/04 01:29:48;;;;;;;8.25;3.80;;;12.30;99.90;;;;;;5013614;28;20068;-56
2022/10/04 01:32:37;;;;;;;12.93;4.05;;;12.20;99.90;;;;;;5030015;28;20661;-56
2022/10/04 01:35:23;;;;;;;7.72;3.80;;;12.20;99.90;;;;;;5023488;28;20069;-53
2022/10/04 01:38:10;;;;;;;9.82;4.13;;;12.20;99.90;;;;;;5011234;28;20080;-53
2022/10/04 01:41:01;;;;;;;8.38;4.15;;;12.30;99.90;;;;;;5022322;28;20460;-55
2022/10/04 01:43:52;;;;;;;12.05;4.47;;;12.30;99.90;;;;;;5031028;28;20022;-53
2022/10/04 01:46:39;;;;;;;11.50;4.10;;;12.20;99.90;;;;;;5013748;28;20489;-53
2022/10/04 01:49:30;;;;;;;9.23;4.05;;;12.10;99.90;;;;;;5016989;28;20025;-54
2022/10/04 01:52:34;;;;;;;10.32;4.13;;;12.10;99.90;;;;;;5032271;28;20052;-56
2022/10/04 01:55:27;;;;;;;9.93;3.83;;;12.10;99.90;;;;;;5019291;28;20117;-56
2022/10/04 01:58:18;;;;;;;10.20;3.80;;;12.10;99.90;;;;;;5012832;28;20032;-55
2022/10/04 02:01:42;;;;;;;7.85;3.92;;;12.10;99.90;;;;;;5029709;28;20033;-56
2022/10/04 02:04:37;;;;;;;7.60;3.85;;;12.10;99.90;;;;;;5027444;28;20030;-54
2022/10/04 02:07:27;;;;;;;7.88;3.83;;;12.20;99.90;;;;;;5012084;28;20030;-55
2022/10/04 02:10:18;;;;;;;10.45;4.60;;;12.10;99.90;;;;;;5006500;28;20030;-54
2022/10/04 02:13:14;;;;;;;10.73;4.30;;;12.10;99.90;;;;;;5020079;28;20045;-56
2022/10/04 02:16:01;;;;;;;;;;;12.00;99.90;;;;;;5012993;28;20124;-52
2022/10/04 02:18:49;;;;;;;12.77;4.32;;;11.90;99.90;;;;;;5013401;28;19976;-54
2022/10/04 02:21:36;;;;;;;11.38;3.30;;;11.80;99.90;;;;;;5029427;28;20123;-54
2022/10/04 02:24:22;;;;;;;11.30;3.80;;;11.80;99.90;;;;;;5030936;28;20527;-53
2022/10/04 02:27:08;;;;;;;6.10;3.50;;;11.80;99.90;;;;;;4992760;28;20042;-52
2022/10/04 02:30:03;;;;;;;9.50;3.80;;;11.80;99.90;;;;;;4997223;28;20033;-53
2022/10/04 02:33:02;;;;;;;11.48;3.78;;;11.80;99.90;;;;;;5010665;28;20052;-53
2022/10/04 02:35:48;;;;;;;13.50;3.90;;;11.90;99.90;;;;;;5021889;28;20037;-56
2022/10/04 02:38:36;;;;;;;11.80;3.88;;;11.80;99.90;;;;;;5032303;28;20108;-55
2022/10/04 02:41:36;;;;;;;10.05;3.38;;;11.70;99.90;;;;;;5016864;28;20738;-52
2022/10/04 02:44:56;;;;;;;14.85;5.18;;;11.80;99.90;;;;;;5012960;28;20014;-53
2022/10/04 02:47:57;;;;;;;10.90;4.10;;;11.80;99.90;;;;;;4964780;28;20097;-54
2022/10/04 02:50:49;;;;;;;15.32;4.43;;;11.70;99.90;;;;;;5016539;28;20033;-53
2022/10/04 02:53:59;;;;;;;8.52;3.50;;;11.60;99.90;;;;;;5040135;28;20029;-51
2022/10/04 02:56:52;;;;;;;7.60;3.63;;;11.60;99.90;;;;;;5019497;28;20457;-54
2022/10/04 02:59:38;;;;;;;5.88;3.42;;;11.60;99.90;;;;;;5011876;28;20025;-51
2022/10/04 03:02:29;;;;;;;5.75;3.90;;;11.50;99.90;;;;;;5009998;28;20135;-55
2022/10/04 03:05:15;;;;;;;8.95;4.30;;;11.50;99.90;;;;;;5014233;28;20405;-57
2022/10/04 03:08:03;;;;;;;13.88;5.18;;;11.40;99.90;;;;;;5027234;28;20044;-53
2022/10/04 03:10:49;;;;;;;9.27;4.10;;;11.30;99.90;;;;;;5011381;28;20101;-51
2022/10/04 03:13:38;;;;;;;10.18;5.65;;;11.30;99.90;;;;;;5017573;28;20117;-56
2022/10/04 03:16:25;;;;;;;10.65;4.10;;;11.30;99.90;;;;;;5029197;28;20084;-53
2022/10/04 03:19:14;;;;;;;12.90;4.45;;;11.30;99.90;;;;;;5034519;28;20112;-55
2022/10/04 03:22:08;;;;;;;10.18;4.22;;;11.20;99.90;;;;;;5033847;28;20064;-54
2022/10/04 03:24:56;;;;;;;13.45;4.25;;;11.20;99.90;;;;;;5018020;28;20515;-57
2022/10/04 03:27:43;;;;;;;6.82;4.05;;;11.10;99.90;;;;;;5015513;28;20049;-53
2022/10/04 03:30:31;;;;;;;9.77;4.35;;;11.10;99.90;;;;;;5015154;28;20034;-55
2022/10/04 03:33:20;;;;;;;10.18;4.20;;;11.20;99.90;;;;;;5028721;28;20088;-55
2022/10/04 03:36:11;;;;;;;7.80;4.15;;;11.20;99.90;;;;;;5029570;28;20041;-54
2022/10/04 03:38:57;;;;;;;9.95;3.92;;;11.30;99.90;;;;;;5014906;28;20497;-55
2022/10/04 03:41:43;;;;;;;10.90;3.55;;;11.20;99.90;;;;;;5021745;28;20497;-56
2022/10/04 03:44:30;;;;;;;11.52;4.10;;;11.10;99.90;;;;;;5020551;28;20026;-56
2022/10/04 03:47:26;;;;;;;12.98;3.90;;;11.00;99.90;;;;;;5021987;28;20033;-56
2022/10/04 03:50:20;;;;;;;7.45;3.90;;;11.00;99.90;;;;;;5014018;28;20022;-54
2022/10/04 03:53:14;;;;;;;9.48;3.85;;;11.00;99.90;;;;;;5013993;28;20058;-57
2022/10/04 03:56:07;;;;;;;9.68;4.10;;;11.00;99.90;;;;;;5014029;28;20022;-56
2022/10/04 03:58:54;;;;;;;8.48;4.20;;;10.90;99.90;;;;;;5035194;28;20076;-57
2022/10/04 04:01:45;;;;;;;19.65;8.50;;;11.00;99.90;;;;;;5028013;28;20109;-55
2022/10/04 04:04:57;;;;;;;9.50;5.35;;;11.00;99.90;;;;;;5007114;28;20092;-54
2022/10/04 04:07:46;;;;;;;9.77;4.93;;;11.00;99.90;;;;;;5034022;28;20101;-55
2022/10/04 04:10:40;;;;;;;13.10;4.40;;;11.00;99.90;;;;;;5018591;28;20022;-53
2022/10/04 04:13:43;;;;;;;8.07;3.50;;;11.10;99.90;;;;;;5013537;28;20101;-54
2022/10/04 04:16:29;;;;;;;10.18;4.15;;;11.20;99.90;;;;;;4995215;28;20034;-55
2022/10/04 04:19:20;;;;;;;8.82;3.92;;;11.20;99.90;;;;;;5000855;28;20036;-56
2022/10/04 04:22:15;;;;;;;8.00;4.03;;;11.20;99.90;;;;;;5033259;28;20032;-54
2022/10/04 04:25:07;;;;;;;10.73;3.92;;;11.30;99.90;;;;;;5024534;28;20581;-55
2022/10/04 04:28:01;;;;;;;9.52;3.50;;;11.20;99.90;;;;;;5013675;28;20121;-55
2022/10/04 04:30:52;;;;;;;7.55;4.05;;;11.20;99.90;;;;;;5027403;28;20109;-56
2022/10/04 04:33:52;;;;;;;9.85;4.63;;;11.30;99.90;;;;;;5033372;28;20025;-54
2022/10/04 04:36:40;;;;;;;14.48;4.38;;;11.30;99.90;;;;;;4993777;28;20094;-55
2022/10/04 04:39:38;;;;;;;11.55;3.97;;;11.20;99.90;;;;;;4997840;28;20023;-57
2022/10/04 04:42:33;;;;;;;8.82;4.15;;;11.20;99.90;;;;;;5028055;28;20026;-55
2022/10/04 04:45:28;;;;;;;7.25;3.90;;;11.20;99.90;;;;;;5014014;28;20030;-56
2022/10/04 04:48:17;;;;;;;7.80;3.55;;;11.30;99.90;;;;;;5032474;28;20063;-56
2022/10/04 04:51:04;;;;;;;10.30;3.80;;;11.30;99.90;;;;;;5017279;28;20445;-55
2022/10/04 04:53:52;;;;;;;9.00;3.90;;;11.30;99.90;;;;;;5000157;28;20029;-53
2022/10/04 04:56:38;;;;;;;8.65;4.45;;;11.30;99.90;;;;;;5018029;28;20040;-54
2022/10/04 04:59:26;;;;;;;9.18;3.83;;;11.40;99.90;;;;;;5018976;28;20553;-53
2022/10/04 05:02:34;;;;;;;13.43;4.05;;;11.40;99.90;;;;;;5013157;28;20041;-57
2022/10/04 05:05:29;;;;;;;9.45;4.03;;;11.50;99.90;;;;;;5014136;28;20034;-57
2022/10/04 05:08:20;;;;;;;10.70;4.35;;;11.50;99.90;;;;;;5032980;28;20034;-55
2022/10/04 05:11:10;;;;;;;14.52;5.78;;;11.40;99.90;;;;;;5030790;28;20083;-54
2022/10/04 05:14:00;;;;;;;16.98;4.80;;;11.40;99.90;;;;;;5032848;28;20053;-52
2022/10/04 05:16:53;;;;;;;14.18;3.88;;;11.50;99.90;;;;;;5017680;28;20034;-54
2022/10/04 05:19:39;;;;;;;9.32;3.80;;;11.50;99.90;;;;;;4999482;28;20583;-52
2022/10/04 05:22:27;;;;;;;9.23;4.35;;;11.50;99.90;;;;;;5033365;28;20036;-53
2022/10/04 05:25:22;;;;;;;13.15;5.13;;;11.40;99.90;;;;;;5039025;28;20076;-55
2022/10/04 05:28:14;;;;;;;9.63;4.10;;;11.40;99.90;;;;;;5019717;28;20026;-57
2022/10/04 05:31:34;;;;;;;8.23;4.15;;;11.40;99.90;;;;;;5024355;28;20409;-53
2022/10/04 05:34:27;;;;;;;10.63;4.32;;;11.40;99.90;;;;;;5031364;28;20417;-55
2022/10/04 05:37:33;;;;;;;11.05;4.63;;;11.30;99.90;;;;;;4993291;28;20038;-55
2022/10/04 05:40:33;;;;;;;15.45;4.80;;;11.40;99.90;;;;;;5011162;28;20105;-57
2022/10/04 05:43:48;;;;;;;11.82;4.70;;;11.40;99.90;;;;;;5014644;28;20033;-56
2022/10/04 05:46:34;;;;;;;9.07;3.92;;;11.40;99.90;;;;;;5032011;28;20122;-55
2022/10/04 05:49:22;;;;;;;9.50;4.15;;;11.30;99.90;;;;;;5021035;28;20038;-56
2022/10/04 05:52:29;;;;;;;6.82;3.95;;;11.30;99.90;;;;;;5012150;28;20402;-53
2022/10/04 05:55:36;;;;;;;10.98;4.20;;;11.50;99.90;;;;;;5029549;28;20346;-55
2022/10/04 05:58:48;;;;;;;16.60;4.43;;;11.40;99.90;;;;;;5030318;28;20037;-52
2022/10/04 06:01:51;;;;;;;13.85;4.68;;;11.50;99.90;;;;;;5011170;28;20026;-56
2022/10/04 06:05:02;;;;;;;15.63;3.90;;;11.50;99.90;;;;;;5021867;28;20026;-54
2022/10/04 06:08:07;;;;;;;9.45;4.30;;;11.70;99.90;;;;;;5016022;28;20033;-55
2022/10/04 06:11:20;;;;;;;8.75;4.22;;;11.70;99.90;;;;;;5010281;28;20106;-55
2022/10/04 06:14:15;;;;;;;21.08;4.65;;;11.80;99.90;;;;;;4992453;28;20461;-56
2022/10/04 06:17:30;;;;;;;17.70;4.28;;;11.70;99.90;;;;;;5006943;28;20088;-56
2022/10/04 06:20:43;;;;;;;10.95;5.10;;;11.80;99.90;;;;;;5031973;28;20080;-53
2022/10/04 06:23:31;;;;;;;11.35;4.15;;;11.80;99.90;;;;;;5011613;28;20030;-55
2022/10/04 06:26:23;;;;;;;9.15;4.05;;;12.00;99.90;;;;;;5012290;28;20117;-53
2022/10/04 06:29:24;;;;;;;11.68;4.35;;;12.00;99.90;;;;;;5030717;28;20061;-56
2022/10/04 06:32:28;;;;;;;12.13;4.35;;;11.80;99.90;;;;;;5011313;28;20068;-57
2022/10/04 06:35:49;;;;;;;11.23;4.47;;;11.90;99.90;;;;;;5011838;28;20493;-56
2022/10/04 06:38:48;;;;;;;22.10;5.50;;;12.00;99.90;;;;;;5011606;28;20053;-56
2022/10/04 06:41:59;;;;;;;12.00;3.95;;;12.00;99.90;;;;;;4991500;28;20022;-54
2022/10/04 06:45:04;;;;;;;10.75;4.25;;;12.10;99.90;;;;;;5026081;28;20556;-57
2022/10/04 06:48:00;;;;;;;;;;;12.10;99.90;;;;;;5009999;28;20030;-55
2022/10/04 06:51:02;;;;;;;13.38;4.30;;;12.30;99.90;;;;;;5015614;28;19958;-56
2022/10/04 06:53:56;;;;;;;7.70;4.20;;;12.30;99.90;;;;;;5013112;28;20026;-54
2022/10/04 06:56:48;;;;;;;14.10;4.75;;;12.40;99.90;;;;;;5011580;28;20030;-54
2022/10/04 07:00:11;;;;;;;11.80;4.90;;;12.40;99.90;;;;;;5010175;28;20417;-58
2022/10/04 07:03:11;;;;;;;15.10;5.13;;;12.40;99.90;;;;;;5020613;28;20145;-58
2022/10/04 07:06:03;;;;;;;11.95;4.13;;;12.40;99.90;;;;;;4996741;28;20371;-56
2022/10/04 07:08:52;;;;;;;14.00;4.03;;;12.40;99.90;;;;;;5020511;28;20040;-57
2022/10/04 07:11:42;;;;;;;15.18;4.72;;;12.40;99.90;;;;;;5029394;28;20033;-57
2022/10/04 07:14:34;;;;;;;8.75;4.57;;;12.50;99.90;;;;;;5031212;28;20514;-57
2022/10/04 07:17:27;;;;;;;6.97;4.00;;;12.50;99.90;;;;;;5028975;28;20690;-57
2022/10/04 07:20:24;;;;;;;9.07;3.92;;;12.50;99.90;;;;;;5030637;28;20025;-56
2022/10/04 07:23:22;;;;;;;8.63;4.00;;;12.50;99.90;;;;;;4991020;28;20026;-52
2022/10/04 07:26:33;;;;;;;9.10;4.50;;;12.60;99.90;;;;;;4998525;28;20151;-55
2022/10/04 07:29:28;;;;;;;9.80;4.65;;;12.60;99.90;;;;;;5011871;28;20026;-50
2022/10/04 07:32:21;;;;;;;10.48;4.55;;;12.70;99.90;;;;;;5025964;28;20022;-52
2022/10/04 07:35:12;;;;;;;10.90;4.53;;;12.70;99.90;;;;;;5020800;28;20081;-57
2022/10/04 07:38:15;;;;;;;8.40;4.40;;;12.70;99.90;;;;;;4994513;28;20033;-56
2022/10/04 07:41:15;;;;;;;9.57;4.43;;;12.80;99.90;;;;;;4998722;28;20450;-57
2022/10/04 07:44:20;;;;;;;12.27;5.72;;;12.80;99.90;;;;;;5030441;28;20048;-55
2022/10/04 07:47:19;;;;;;;11.60;4.80;;;12.90;99.90;;;;;;5018573;28;20412;-57
2022/10/04 07:50:26;;;;;;;8.60;4.40;;;13.00;99.90;;;;;;5010804;28;20516;-56
2022/10/04 07:53:23;;;;;;;10.88;4.57;;;13.10;99.90;;;;;;4990985;28;20030;-57
2022/10/04 07:56:16;;;;;;;10.57;4.85;;;13.20;99.90;;;;;;4999166;28;20026;-57
2022/10/04 07:59:36;;;;;;;12.55;4.75;;;13.30;99.90;;;;;;5011114;28;20062;-56
2022/10/04 08:02:44;;;;;;;9.35;4.25;;;13.30;99.90;;;;;;5026320;28;20037;-56
2022/10/04 08:05:42;;;;;;;10.85;4.03;;;13.40;99.90;;;;;;5028491;28;20601;-53
2022/10/04 08:08:42;;;;;;;9.27;5.00;;;13.40;99.90;;;;;;5033860;28;20416;-54
2022/10/04 08:11:57;;;;;;;11.73;5.15;;;13.40;99.90;;;;;;4994280;28;20034;-55
2022/10/04 08:15:13;;;;;;;13.27;4.20;;;13.40;99.90;;;;;;5004071;28;20032;-53
2022/10/04 08:18:22;;;;;;;9.27;4.65;;;13.40;99.90;;;;;;5023921;28;20044;-56
2022/10/04 08:21:17;;;;;;;12.85;5.32;;;13.40;99.90;;;;;;5033410;28;20033;-54
2022/10/04 08:24:15;;;;;;;18.38;5.00;;;13.40;99.90;;;;;;5013817;28;20046;-58
2022/10/04 08:27:22;;;;;;;8.27;3.95;;;13.50;99.90;;;;;;5012353;28;20034;-56
2022/10/04 08:30:15;;;;;;;9.60;4.28;;;13.60;99.90;;;;;;5008824;28;20014;-57
2022/10/04 08:33:23;;;;;;;16.15;4.70;;;13.60;99.90;;;;;;5031748;28;20029;-57
2022/10/04 08:36:31;;;;;;;10.27;4.85;;;13.60;99.90;;;;;;5032322;28;20577;-56
2022/10/04 08:39:45;;;;;;;13.00;4.30;;;13.60;99.90;;;;;;5012577;28;20065;-56
2022/10/04 08:43:19;;;;;;;10.73;4.82;;;13.80;99.90;;;;;;5002772;28;20047;-55
2022/10/04 08:46:22;;;;;;;14.73;5.43;;;13.70;99.90;;;;;;5005021;28;20037;-56
2022/10/04 08:49:36;;;;;;;12.95;4.90;;;13.70;99.90;;;;;;5012550;28;20049;-56
2022/10/04 08:52:35;;;;;;;10.02;4.97;;;13.80;99.90;;;;;;4993324;28;20113;-58
2022/10/04 08:55:33;;;;;;;10.45;4.10;;;14.00;99.90;;;;;;5009560;28;20382;-56
2022/10/04 08:58:35;;;;;;;12.65;4.93;;;14.10;99.90;;;;;;5031783;28;20032;-58
2022/10/04 09:01:31;;;;;;;10.48;5.00;;;14.10;99.90;;;;;;5022918;28;20036;-56
2022/10/04 09:04:35;;;;;;;8.65;4.30;;;14.10;99.90;;;;;;5032402;28;20377;-52
2022/10/04 09:07:21;;;;;;;9.30;4.75;;;14.10;99.90;;;;;;4995897;28;20029;-55
2022/10/04 09:10:21;;;;;;;10.13;4.95;;;14.20;99.90;;;;;;5028840;28;20455;-55
2022/10/04 09:13:33;;;;;;;12.32;4.60;;;14.30;99.90;;;;;;5027314;28;20064;-71
2022/10/04 09:16:36;;;;;;;9.35;4.25;;;14.30;99.90;;;;;;5011418;28;20416;-52
2022/10/04 09:19:55;;;;;;;10.15;3.80;;;14.30;99.90;;;;;;5015357;28;20180;-55
2022/10/04 09:22:55;;;;;;;7.05;3.58;;;14.40;99.90;;;;;;5030007;28;20452;-52
2022/10/04 09:25:53;;;;;;;10.10;4.05;;;14.30;99.90;;;;;;5021267;28;20080;-52
2022/10/04 09:29:07;;;;;;;11.85;4.03;;;14.40;99.90;;;;;;5016691;28;20113;-51
2022/10/04 09:32:15;;;;;;;8.15;3.78;;;14.50;99.90;;;;;;5015209;28;20014;-53
2022/10/04 09:35:38;;;;;;;16.92;3.80;;;14.50;99.90;;;;;;5011647;28;20106;-52
2022/10/04 09:38:48;;;;;;;12.45;3.97;;;14.40;99.90;;;;;;5010818;28;20022;-48
2022/10/04 09:42:07;;;;;;;9.55;3.40;;;14.60;99.90;;;;;;5011368;28;20022;-52
2022/10/04 09:45:23;;;;;;;8.82;3.40;;;15.00;99.90;;;;;;5012525;28;20526;-52
2022/10/04 09:48:36;;;;;;;10.18;3.88;;;15.00;99.90;;;;;;5032155;28;20025;-56
2022/10/04 09:51:55;;;;;;;9.63;3.70;;;15.00;99.90;;;;;;5014071;28;20037;-52
2022/10/04 09:54:53;;;;;;;8.07;3.38;;;15.10;99.90;;;;;;5011229;28;20084;-55
2022/10/04 09:58:00;;;;;;;12.23;4.00;;;15.30;99.90;;;;;;5010199;28;20026;-52
2022/10/04 10:01:09;;;;;;;6.97;3.40;;;15.50;99.90;;;;;;5030637;28;20444;-53
2022/10/04 10:04:19;;;;;;;9.13;3.30;;;15.50;99.50;;;;;;5012078;28;20041;-53
2022/10/04 10:07:17;;;;;;;8.90;3.83;;;15.40;99.80;;;;;;5024367;28;20117;-50
2022/10/04 10:14:26;;;;;;;11.85;3.40;;;15.80;98.40;;;;;;5013809;28;20493;-52
2022/10/04 10:17:40;;;;;;;6.90;3.15;;;15.90;98.50;;;;;;5009947;28;20530;-49
2022/10/04 10:20:59;;;;;;;8.65;3.70;;;16.30;97.40;;;;;;5003160;28;20085;-51
2022/10/04 10:23:56;;;;;;;5.13;3.13;;;16.30;97.00;;;;;;5015939;28;20101;-53
2022/10/04 10:27:08;;;;;;;6.20;3.50;;;16.40;97.00;;;;;;5029122;28;20052;-52
2022/10/04 10:30:15;;;;;;;6.05;2.80;;;16.40;96.30;;;;;;5013164;28;20084;-49
2022/10/04 10:33:23;;;;;;;6.78;3.45;;;16.40;96.20;;;;;;4995095;28;20030;-47
2022/10/04 10:36:34;;;;;;;8.50;3.88;;;16.50;95.90;;;;;;5030517;28;20030;-53
2022/10/04 10:39:55;;;;;;;5.97;3.10;;;16.60;95.70;;;;;;5013948;28;20084;-54
2022/10/04 10:43:02;;;;;;;11.25;3.70;;;16.50;95.90;;;;;;5021203;28;20038;-48
2022/10/04 10:46:14;;;;;;;8.10;3.97;;;16.40;96.20;;;;;;4992563;28;20687;-49
2022/10/04 10:49:09;;;;;;;8.23;3.40;;;16.40;96.40;;;;;;5015845;28;20524;-44
2022/10/04 10:52:09;;;;;;;11.27;3.95;;;16.40;96.80;;;;;;4991452;28;20033;-50
2022/10/04 10:54:58;;;;;;;7.47;4.00;;;16.40;96.50;;;;;;5016196;28;20026;-48
2022/10/04 10:58:04;;;;;;;6.40;3.10;;;16.10;96.50;;;;;;5029764;28;20073;-51
2022/10/04 11:01:05;;;;;;;11.20;3.72;;;16.30;96.60;;;;;;5018822;28;20105;-49
2022/10/04 11:04:16;;;;;;;6.82;3.53;;;16.40;95.90;;;;;;5024362;28;20032;-53
2022/10/04 11:07:44;;;;;;;6.85;3.25;;;16.50;95.70;;;;;;5016245;28;20548;-47
2022/10/04 11:11:03;;;;;;;11.07;4.20;;;16.60;95.80;;;;;;5005316;28;20513;-49
2022/10/04 11:14:32;;;;;;;9.57;3.88;;;16.70;95.80;;;;;;5011009;28;20030;-52
2022/10/04 11:17:55;;;;;;;9.80;3.60;;;16.80;95.50;;;;;;5011936;28;20082;-47
2022/10/04 11:21:24;;;;;;;6.68;3.60;;;16.80;95.30;;;;;;5022395;28;20022;-46
2022/10/04 11:24:20;;;;;;;8.65;3.90;;;16.90;94.90;;;;;;5018848;28;20018;-46
2022/10/04 11:27:48;;;;;;;12.18;4.13;;;16.80;94.80;;;;;;5031444;28;20029;-52
2022/10/04 11:30:37;;;;;;;7.70;3.92;;;16.80;94.90;;;;;;4987794;28;20018;-50
2022/10/04 11:33:41;;;;;;;12.15;3.72;;;16.90;95.40;;;;;;5021823;28;20025;-47
2022/10/04 11:36:52;;;;;;;7.50;3.78;;;16.80;95.40;;;;;;5026075;28;20116;-47
2022/10/04 11:40:03;;;;;;;5.95;3.55;;;17.00;95.20;;;;;;5013896;28;20021;-51
2022/10/04 11:42:49;;;;;;;6.65;3.97;;;17.00;95.00;;;;;;5027180;28;20041;-45
2022/10/04 11:46:03;;;;;;;6.28;3.47;;;17.00;95.10;;;;;;5033223;28;20033;-48
2022/10/04 11:49:01;;;;;;;7.85;4.43;;;17.00;95.00;;;;;;5018439;28;20080;-51
2022/10/04 11:52:04;;;;;;;8.15;3.67;;;17.10;95.10;;;;;;5000209;28;20025;-53
2022/10/04 11:55:20;;;;;;;6.68;3.65;;;17.10;94.90;;;;;;5011599;28;20105;-46
2022/10/04 11:58:23;;;;;;;6.50;3.55;;;17.10;94.00;;;;;;5022714;28;20050;-47
2022/10/04 12:01:31;;;;;;;7.78;3.08;;;17.00;94.10;;;;;;5030196;28;20033;-48
2022/10/04 12:04:34;;;;;;;6.88;3.72;;;17.10;94.00;;;;;;5016642;28;20061;-49
2022/10/04 12:07:22;;;;;;;7.70;3.38;;;17.00;94.00;;;;;;5024508;28;20034;-47
2022/10/04 12:10:39;;;;;;;8.63;3.60;;;17.20;94.00;;;;;;5031758;28;20057;-47
2022/10/04 12:13:46;;;;;;;5.43;3.40;;;17.40;93.60;;;;;;5015193;28;20116;-49
2022/10/04 12:16:35;;;;;;;5.07;3.17;;;17.30;93.60;;;;;;5009014;28;20026;-53
2022/10/04 12:19:39;;;;;;;6.05;3.58;;;17.40;93.80;;;;;;5017190;28;20464;-46
2022/10/04 12:22:37;;;;;;;9.57;4.00;;;17.30;93.40;;;;;;5023488;28;20468;-48
2022/10/04 12:25:52;;;;;;;9.10;4.20;;;17.50;93.90;;;;;;5014021;28;20049;-46
2022/10/04 12:28:58;;;;;;;10.23;3.67;;;17.80;93.40;;;;;;5014433;28;20037;-52
2022/10/04 12:31:47;;;;;;;9.18;3.63;;;17.90;92.80;;;;;;5012394;28;20036;-50
2022/10/04 12:35:08;;;;;;;7.68;3.58;;;17.90;92.80;;;;;;5008048;28;20109;-46
2022/10/04 12:38:15;;;;;;;7.50;3.60;;;18.10;92.90;;;;;;5017530;28;20077;-54
2022/10/04 12:41:27;;;;;;;6.68;3.42;;;18.20;92.30;;;;;;5023994;28;20033;-48
2022/10/04 12:44:32;;;;;;;8.27;3.63;;;18.50;92.40;;;;;;5024561;28;20048;-47
2022/10/04 12:47:33;;;;;;;7.57;3.60;;;18.50;91.80;;;;;;5036751;28;20030;-52
2022/10/04 12:50:34;;;;;;;5.63;2.97;;;18.50;91.40;;;;;;5010224;28;20137;-48
2022/10/04 12:53:36;;;;;;;7.45;3.45;;;18.50;91.10;;;;;;5018359;28;20393;-48
2022/10/04 12:56:41;;;;;;;7.70;3.92;;;18.40;91.20;;;;;;5022214;28;20038;-49
2022/10/04 12:59:42;;;;;;;8.85;4.05;;;18.50;91.60;;;;;;5022139;28;20026;-52
2022/10/04 13:03:01;;;;;;;6.05;3.20;;;18.70;91.00;;;;;;5019620;28;20041;-49
2022/10/04 13:06:18;;;;;;;9.68;3.60;;;18.80;91.40;;;;;;5033602;28;20025;-55
2022/10/04 13:09:15;;;;;;;6.20;3.10;;;19.10;91.10;;;;;;5011960;28;20030;-51
2022/10/04 13:12:33;;;;;;;9.38;3.97;;;19.10;91.00;;;;;;5010619;28;20127;-53
2022/10/04 13:15:31;;;;;;;6.80;3.50;;;19.10;91.10;;;;;;5012214;28;20383;-54
2022/10/04 13:18:22;;;;;;;6.75;3.70;;;19.10;90.70;;;;;;4999505;28;20027;-56
2022/10/04 13:21:10;;;;;;;7.15;3.70;;;19.00;91.20;;;;;;5014095;28;20057;-60
2022/10/04 13:24:06;;;;;;;6.82;3.30;;;19.00;90.50;;;;;;5012287;28;20022;-48
2022/10/04 13:27:04;;;;;;;5.88;3.42;;;19.20;90.40;;;;;;5016736;28;20041;-49
2022/10/04 13:30:01;;;;;;;4.88;2.90;;;19.10;88.80;;;;;;5012166;28;20480;-50
2022/10/04 13:33:09;;;;;;;6.45;2.85;;;19.20;88.60;;;;;;4998700;28;20037;-49
2022/10/04 13:36:22;;;;;;;8.45;3.22;;;19.50;86.70;;;;;;5010270;28;20033;-48
2022/10/04 13:39:30;;;;;;;7.18;2.97;;;19.60;86.30;;;;;;5006504;28;20033;-52
2022/10/04 13:42:28;;;;;;;6.53;3.28;;;19.70;85.60;;;;;;5011073;28;20022;-51
2022/10/04 13:45:20;;;;;;;5.40;2.97;;;19.80;85.60;;;;;;5011489;28;20029;-50
2022/10/04 13:48:48;;;;;;;6.80;2.80;;;19.80;84.00;;;;;;5011513;28;20495;-52
2022/10/04 13:51:37;;;;;;;6.35;2.95;;;19.80;84.90;;;;;;4994750;28;20049;-47
2022/10/04 13:58:00;;;;;;;6.32;3.10;;;19.90;85.00;;;;;;5028962;28;20037;-46
2022/10/04 14:01:19;;;;;;;5.57;3.03;;;20.30;84.40;;;;;;4995551;28;20070;-49
2022/10/04 14:04:23;;;;;;;4.75;3.03;;;20.30;83.90;;;;;;5009352;28;20029;-47
2022/10/04 14:07:43;;;;;;;4.80;2.97;;;20.30;83.10;;;;;;5031478;28;20504;-50
2022/10/04 14:10:53;;;;;;;7.88;3.40;;;20.40;83.50;;;;;;4996486;28;20252;-55
2022/10/04 14:14:09;;;;;;;5.60;2.80;;;20.60;83.50;;;;;;5025968;28;20104;-56
2022/10/04 14:17:12;;;;;;;7.35;3.65;;;20.50;84.40;;;;;;5014065;28;20072;-51
2022/10/04 14:20:22;;;;;;;5.85;3.13;;;20.50;84.70;;;;;;5010962;28;20092;-52
2022/10/04 14:23:44;;;;;;;4.97;3.03;;;20.40;83.30;;;;;;5025982;28;20116;-48
2022/10/04 14:27:02;;;;;;;11.68;4.40;;;20.30;84.30;;;;;;5018660;28;20037;-50
2022/10/04 14:29:54;;;;;;;5.40;3.10;;;20.40;84.10;;;;;;4964931;28;20038;-48
2022/10/04 14:33:17;;;;;;;5.28;3.25;;;20.40;84.10;;;;;;5009086;28;20037;-47
2022/10/04 14:36:47;;;;;;;7.13;3.42;;;20.50;84.00;;;;;;5009650;28;20030;-47
2022/10/04 14:40:06;;;;;;;4.88;3.30;;;20.70;83.80;;;;;;5021805;28;20022;-50
2022/10/04 14:43:20;;;;;;;5.78;3.17;;;20.70;84.60;;;;;;5015436;28;20021;-50
2022/10/04 14:46:37;;;;;;;8.48;3.22;;;21.10;83.00;;;;;;5011328;28;20030;-46
2022/10/04 14:49:38;;;;;;;6.45;3.25;;;21.50;83.00;;;;;;4991805;28;20050;-46
2022/10/04 14:52:55;;;;;;;5.35;3.10;;;21.80;80.70;;;;;;5003755;28;20038;-53
2022/10/04 14:56:25;;;;;;;9.65;3.30;;;22.40;80.40;;;;;;5025769;28;20022;-51
2022/10/04 14:59:13;;;;;;;5.50;3.17;;;23.10;77.80;;;;;;4989320;28;20030;-51
2022/10/04 15:01:59;;;;;;;9.02;4.03;;;23.40;77.10;;;;;;4999169;28;20429;-53
2022/10/04 15:05:07;;;;;;;7.13;3.28;;;23.20;76.60;;;;;;5011881;28;20034;-51
2022/10/04 15:08:11;;;;;;;6.53;3.15;;;22.90;77.90;;;;;;4992415;28;20034;-50
2022/10/04 15:10:59;;;;;;;6.75;2.80;;;21.80;79.90;;;;;;5007069;28;20097;-50
2022/10/04 15:13:55;;;;;;;5.43;3.20;;;21.10;81.40;;;;;;5018228;28;20017;-52
2022/10/04 15:16:58;;;;;;;4.97;3.55;;;20.20;83.70;;;;;;5021444;28;20424;-55
2022/10/04 15:20:21;;;;;;;7.60;3.63;;;19.80;85.30;;;;;;5014224;28;20022;-49
2022/10/04 15:23:15;;;;;;;5.78;3.00;;;19.70;86.40;;;;;;4992135;28;20026;-48
2022/10/04 15:26:09;;;;;;;6.50;3.50;;;19.50;87.20;;;;;;4990972;28;20027;-55
2022/10/04 15:29:14;;;;;;;9.05;3.53;;;19.20;88.10;;;;;;5022672;28;20109;-48
2022/10/04 15:32:27;;;;;;;7.85;3.90;;;19.10;88.80;;;;;;5000131;28;20035;-50
2022/10/04 15:35:34;;;;;;;8.52;3.78;;;19.20;89.20;;;;;;5012483;28;20109;-52
2022/10/04 15:39:00;;;;;;;8.05;3.22;;;19.10;89.30;;;;;;5007331;28;20018;-52
2022/10/04 15:41:46;;;;;;;7.25;3.80;;;19.20;89.80;;;;;;4985448;28;20042;-47
2022/10/04 15:44:44;;;;;;;7.78;3.50;;;19.50;89.30;;;;;;5024409;28;20458;-54